Time;durP1;ratioP1;P1;durP2;ratioP2;P2;SDS_P1;SDS_P2;PMS_P1;PMS_P2;Temp;Humidity;BMP_temperature;BMP_pressure;BME280_temperature;BME280_humidity;BME280_pressure;Samples;Min_cycle;Max_cycle;Signal;HPM_P1;HPM_P2
2023/10/26 00:01:17;;;;;;;;;;;;;;;14.66;65.17;98559.28;6096253;23;6930;-76
2023/10/26 00:03:43;;;;;;;;;;;;;;;14.66;64.46;98556.72;6122084;23;7089;-76
2023/10/26 00:06:09;;;;;;;;;;;;;;;14.66;65.15;98564.44;6145522;23;6944;-75
2023/10/26 00:08:35;;;;;;;;;;;;;;;14.65;65.37;98561.03;6145319;23;7074;-77
2023/10/26 00:11:04;;;;;;;;;;;;;;;14.65;64.80;98570.47;6095693;23;6955;-76
2023/10/26 00:13:29;;;;;;;;;;;;;;;14.66;65.20;98577.34;6122175;23;7186;-76
2023/10/26 00:15:55;;;;;;;;;;;;;;;14.66;64.86;98582.50;6121094;23;6839;-76
2023/10/26 00:18:20;;;;;;;;;;;;;;;14.67;64.61;98586.78;6119931;23;6826;-75
2023/10/26 00:20:46;;;;;;;;;;;;;;;14.66;64.91;98588.53;6119928;23;7096;-76
2023/10/26 00:23:12;;;;;;;;;;;;;;;14.66;65.41;98579.91;6145498;23;6766;-76
2023/10/26 00:25:38;;;;;;;;;;;;;;;14.66;65.15;98587.66;6121770;23;6759;-74
2023/10/26 00:28:03;;;;;;;;;;;;;;;14.65;64.98;98591.09;6146846;23;6954;-76
2023/10/26 00:30:29;;;;;;;;;;;;;;;14.66;64.69;98588.53;6120412;23;6834;-75
2023/10/26 00:32:54;;;;;;;;;;;;;;;14.66;65.27;98592.81;6149317;23;6766;-76
2023/10/26 00:35:20;;;;;;;;;;;;;;;14.65;64.83;98597.13;6121711;23;7810;-76
2023/10/26 00:37:46;;;;;;;;;;;;;;;14.65;64.65;98601.41;6117924;23;6766;-76
2023/10/26 00:40:12;;;;;;;;;;;;;;;14.64;65.30;98594.53;6147829;23;7003;-76
2023/10/26 00:42:38;;;;;;;;;;;;;;;14.64;64.61;98595.41;6147411;23;6806;-74
2023/10/26 00:45:05;;;;;;;;;;;;;;;14.64;64.63;98602.25;6148646;23;6779;-75
2023/10/26 00:47:31;;;;;;;;;;;;;;;14.64;64.83;98599.69;6144104;23;6912;-76
2023/10/26 00:49:59;;;;;;;;;;;;;;;14.63;64.86;98609.16;6146065;23;6858;-75
2023/10/26 00:52:26;;;;;;;;;;;;;;;14.63;64.88;98609.16;6121529;23;7005;-76
2023/10/26 00:54:53;;;;;;;;;;;;;;;14.62;65.32;98612.56;6141707;23;6785;-76
2023/10/26 00:57:23;;;;;;;;;;;;;;;14.60;64.43;98618.59;6143902;23;6786;-72
2023/10/26 00:59:51;;;;;;;;;;;;;;;14.57;64.74;98615.13;6118548;23;7162;-72
2023/10/26 01:02:19;;;;;;;;;;;;;;;14.56;64.76;98622.88;6120604;23;6950;-72
2023/10/26 01:04:45;;;;;;;;;;;;;;;14.56;65.43;98612.56;6148191;23;7265;-72
2023/10/26 01:07:11;;;;;;;;;;;;;;;14.56;64.74;98618.56;6147445;23;6767;-72
2023/10/26 01:09:37;;;;;;;;;;;;;;;14.56;64.84;98621.13;6120186;23;6763;-72
2023/10/26 01:12:03;;;;;;;;;;;;;;;14.56;64.49;98622.88;6120712;23;6837;-72
2023/10/26 01:14:29;;;;;;;;;;;;;;;14.55;64.49;98622.00;6117987;23;7419;-72
2023/10/26 01:16:55;;;;;;;;;;;;;;;14.55;64.42;98626.31;6115081;23;6847;-72
2023/10/26 01:19:20;;;;;;;;;;;;;;;14.55;64.84;98632.31;6143554;23;6839;-72
2023/10/26 01:21:52;;;;;;;;;;;;;;;14.56;64.74;98635.75;6121460;23;6770;-72
2023/10/26 01:24:19;;;;;;;;;;;;;;;14.56;64.70;98634.03;6146862;23;7167;-73
2023/10/26 01:26:44;;;;;;;;;;;;;;;14.54;64.74;98625.44;6144974;23;6989;-73
2023/10/26 01:29:11;;;;;;;;;;;;;;;14.55;65.14;98626.31;6146257;23;6902;-72
2023/10/26 01:31:36;;;;;;;;;;;;;;;14.57;64.72;98632.31;6120198;23;6834;-72
2023/10/26 01:34:02;;;;;;;;;;;;;;;14.55;64.50;98627.16;6117240;23;6783;-72
2023/10/26 01:36:28;;;;;;;;;;;;;;;14.56;64.33;98628.88;6120473;23;7160;-72
2023/10/26 01:38:55;;;;;;;;;;;;;;;14.58;64.73;98629.78;6119324;23;6759;-72
2023/10/26 01:41:21;;;;;;;;;;;;;;;14.59;64.90;98633.19;6105657;23;7047;-72
2023/10/26 01:43:47;;;;;;;;;;;;;;;14.61;64.36;98630.63;6145103;23;6783;-72
2023/10/26 01:46:13;;;;;;;;;;;;;;;14.61;64.78;98638.34;6122206;23;6779;-72
2023/10/26 01:48:39;;;;;;;;;;;;;;;14.61;64.84;98638.34;6120945;23;6775;-72
2023/10/26 01:51:05;;;;;;;;;;;;;;;14.64;64.81;98639.22;6144925;23;6958;-72
2023/10/26 01:53:30;;;;;;;;;;;;;;;14.66;65.05;98640.09;6121096;23;7115;-72
2023/10/26 01:55:56;;;;;;;;;;;;;;;14.68;64.20;98642.69;6120325;23;6810;-72
2023/10/26 01:58:22;;;;;;;;;;;;;;;14.71;64.25;98640.09;6122514;23;6990;-73
2023/10/26 02:00:47;;;;;;;;;;;;;;;14.71;63.98;98635.78;6121195;23;7238;-72
2023/10/26 02:03:15;;;;;;;;;;;;;;;14.73;64.40;98633.25;6122704;23;7147;-72
2023/10/26 02:05:41;;;;;;;;;;;;;;;14.75;64.57;98633.28;6120220;23;6973;-72
2023/10/26 02:08:07;;;;;;;;;;;;;;;14.75;64.80;98628.97;6146679;23;6759;-72
2023/10/26 02:10:33;;;;;;;;;;;;;;;14.77;64.37;98644.44;6121373;23;6847;-72
2023/10/26 02:12:59;;;;;;;;;;;;;;;14.77;64.50;98629.81;6096305;23;7459;-72
2023/10/26 02:15:25;;;;;;;;;;;;;;;14.76;64.21;98635.84;6097342;23;7118;-72
2023/10/26 02:17:51;;;;;;;;;;;;;;;14.76;64.63;98646.16;6147199;23;7691;-73
2023/10/26 02:20:17;;;;;;;;;;;;;;;14.76;63.92;98646.16;6093903;23;6973;-72
2023/10/26 02:22:42;;;;;;;;;;;;;;;14.75;64.62;98647.00;6120417;23;6779;-72
2023/10/26 02:25:08;;;;;;;;;;;;;;;14.74;64.59;98653.03;6093018;23;6961;-72
2023/10/26 02:27:35;;;;;;;;;;;;;;;14.75;64.85;98656.50;6147999;23;7120;-72
2023/10/26 02:30:01;;;;;;;;;;;;;;;14.73;64.36;98646.16;6122514;23;7225;-72
2023/10/26 02:32:27;;;;;;;;;;;;;;;14.73;64.24;98651.31;6117693;23;6909;-72
2023/10/26 02:34:52;;;;;;;;;;;;;;;14.70;64.49;98657.28;6119841;23;6964;-72
2023/10/26 02:37:19;;;;;;;;;;;;;;;14.71;64.81;98660.75;6147662;23;7063;-72
2023/10/26 02:39:46;;;;;;;;;;;;;;;14.69;64.23;98654.72;6120402;23;7138;-72
2023/10/26 02:42:12;;;;;;;;;;;;;;;14.69;64.51;98659.88;6121386;23;6957;-73
2023/10/26 02:44:37;;;;;;;;;;;;;;;14.69;64.14;98649.56;6146676;23;8020;-72
2023/10/26 02:47:03;;;;;;;;;;;;;;;14.69;64.33;98647.00;6118906;23;7128;-72
2023/10/26 02:49:30;;;;;;;;;;;;;;;14.70;63.88;98653.84;6122729;23;7092;-72
2023/10/26 02:51:57;;;;;;;;;;;;;;;14.66;63.90;98641.78;6148578;23;7173;-72
2023/10/26 02:54:27;;;;;;;;;;;;;;;14.66;64.06;98646.94;6097341;23;7244;-72
2023/10/26 02:56:53;;;;;;;;;;;;;;;14.66;64.01;98649.53;6119949;23;7201;-72
2023/10/26 02:59:19;;;;;;;;;;;;;;;14.65;64.75;98648.69;6099084;23;7218;-72
2023/10/26 03:01:45;;;;;;;;;;;;;;;14.65;63.95;98658.13;6139851;23;6758;-72
2023/10/26 03:04:11;;;;;;;;;;;;;;;14.65;64.52;98655.56;6122867;23;7097;-72
2023/10/26 03:06:38;;;;;;;;;;;;;;;14.63;63.61;98640.09;6122026;23;6904;-72
2023/10/26 03:09:05;;;;;;;;;;;;;;;14.62;64.69;98642.66;6122294;23;7797;-72
2023/10/26 03:11:31;;;;;;;;;;;;;;;14.61;64.40;98635.78;6122662;23;6834;-72
2023/10/26 03:13:57;;;;;;;;;;;;;;;14.60;64.07;98650.38;6119919;23;7002;-72
2023/10/26 03:16:23;;;;;;;;;;;;;;;14.59;63.94;98648.66;6120580;23;7011;-72
2023/10/26 03:18:48;;;;;;;;;;;;;;;14.58;64.55;98645.22;6119643;23;6914;-72
2023/10/26 03:21:16;;;;;;;;;;;;;;;14.59;63.96;98648.66;6122165;23;6794;-72
2023/10/26 03:23:41;;;;;;;;;;;;;;;14.61;64.28;98640.94;6097117;23;7264;-72
2023/10/26 03:26:13;;;;;;;;;;;;;;;14.61;64.10;98646.09;6121752;23;7148;-72
2023/10/26 03:28:39;;;;;;;;;;;;;;;14.59;63.84;98640.91;6142402;23;6958;-72
2023/10/26 03:31:10;;;;;;;;;;;;;;;14.58;64.54;98639.19;6144377;23;6805;-72
2023/10/26 03:33:36;;;;;;;;;;;;;;;14.56;63.70;98646.91;6120457;23;6853;-72
2023/10/26 03:36:02;;;;;;;;;;;;;;;14.57;64.28;98634.91;6120174;23;6773;-73
2023/10/26 03:38:28;;;;;;;;;;;;;;;14.55;64.21;98642.63;6118786;23;6759;-72
2023/10/26 03:40:54;;;;;;;;;;;;;;;14.57;63.90;98643.47;6144784;23;6823;-72
2023/10/26 03:43:19;;;;;;;;;;;;;;;14.58;64.26;98637.50;6121283;23;6767;-72
2023/10/26 03:45:45;;;;;;;;;;;;;;;14.61;64.44;98639.19;6120687;23;6763;-72
2023/10/26 03:48:11;;;;;;;;;;;;;;;14.61;64.09;98639.19;6140969;23;6779;-75
2023/10/26 03:50:37;;;;;;;;;;;;;;;14.61;63.91;98635.78;6143519;23;6957;-72
2023/10/26 03:53:03;;;;;;;;;;;;;;;14.60;63.91;98639.22;6116984;23;6771;-72
2023/10/26 03:55:28;;;;;;;;;;;;;;;14.57;63.67;98640.91;6147111;23;7020;-72
2023/10/26 03:57:54;;;;;;;;;;;;;;;14.55;63.93;98639.19;6147448;23;7054;-72
2023/10/26 04:00:20;;;;;;;;;;;;;;;14.53;63.73;98646.03;6119317;23;7015;-72
2023/10/26 04:02:45;;;;;;;;;;;;;;;14.51;64.01;98640.91;6118220;23;7133;-73
2023/10/26 04:05:12;;;;;;;;;;;;;;;14.51;63.85;98648.63;6146201;23;6771;-72
2023/10/26 04:07:38;;;;;;;;;;;;;;;14.51;63.92;98643.47;6118215;23;6783;-72
2023/10/26 04:10:07;;;;;;;;;;;;;;;14.52;64.43;98636.59;6119314;23;6775;-72
2023/10/26 04:12:33;;;;;;;;;;;;;;;14.50;64.10;98636.59;6122728;23;6858;-71
2023/10/26 04:14:58;;;;;;;;;;;;;;;14.53;63.70;98646.91;6142155;23;6978;-72
2023/10/26 04:17:24;;;;;;;;;;;;;;;14.52;64.18;98646.91;6121268;23;8223;-72
2023/10/26 04:19:49;;;;;;;;;;;;;;;14.53;63.39;98649.50;6147847;23;6750;-72
2023/10/26 04:22:15;;;;;;;;;;;;;;;14.52;64.29;98650.34;6121081;23;7000;-72
2023/10/26 04:24:41;;;;;;;;;;;;;;;14.51;64.52;98653.78;6145810;23;6852;-72
2023/10/26 04:27:06;;;;;;;;;;;;;;;14.50;64.20;98651.19;6149151;23;6767;-74
2023/10/26 04:29:32;;;;;;;;;;;;;;;14.46;64.36;98637.44;6163365;23;6906;-74
2023/10/26 04:31:57;;;;;;;;;;;;;;;14.44;63.96;98642.59;6158624;23;7053;-73
2023/10/26 04:34:23;;;;;;;;;;;;;;;14.41;63.60;98636.56;6161389;23;6767;-73
2023/10/26 04:36:49;;;;;;;;;;;;;;;14.40;64.04;98640.00;6137488;23;6950;-74
2023/10/26 04:39:16;;;;;;;;;;;;;;;14.33;63.59;98635.66;6156978;23;7083;-73
2023/10/26 04:41:43;;;;;;;;;;;;;;;14.26;63.47;98630.47;6136222;23;6775;-73
2023/10/26 04:44:09;;;;;;;;;;;;;;;14.20;63.52;98627.91;6135830;23;6763;-73
2023/10/26 04:46:34;;;;;;;;;;;;;;;14.11;63.34;98635.56;6160975;23;6961;-74
2023/10/26 04:49:00;;;;;;;;;;;;;;;14.00;63.37;98635.50;6161476;23;6936;-73
2023/10/26 04:51:26;;;;;;;;;;;;;;;13.92;62.71;98637.16;6136190;23;6954;-73
2023/10/26 04:53:52;;;;;;;;;;;;;;;13.84;63.29;98629.41;6161659;23;6918;-73
2023/10/26 04:56:18;;;;;;;;;;;;;;;13.78;63.46;98621.63;6160233;23;6957;-73
2023/10/26 04:58:44;;;;;;;;;;;;;;;13.71;63.68;98616.47;6133978;23;6942;-74
2023/10/26 05:01:10;;;;;;;;;;;;;;;13.68;63.37;98618.16;6157902;23;6802;-74
2023/10/26 05:03:37;;;;;;;;;;;;;;;13.64;63.87;98614.69;6132922;23;7178;-73
2023/10/26 05:06:03;;;;;;;;;;;;;;;13.60;63.05;98616.38;6160457;23;6808;-74
2023/10/26 05:08:29;;;;;;;;;;;;;;;13.57;63.88;98612.91;6164311;23;6762;-73
2023/10/26 05:10:55;;;;;;;;;;;;;;;13.55;64.23;98607.75;6162217;23;6759;-74
2023/10/26 05:13:21;;;;;;;;;;;;;;;13.54;64.03;98616.31;6163107;23;6929;-73
2023/10/26 05:15:48;;;;;;;;;;;;;;;13.51;64.09;98613.72;6139860;23;6970;-74
2023/10/26 05:18:14;;;;;;;;;;;;;;;13.50;63.94;98612.00;6164038;23;7102;-73
2023/10/26 05:20:39;;;;;;;;;;;;;;;13.50;63.48;98611.13;6140155;23;6763;-73
2023/10/26 05:23:06;;;;;;;;;;;;;;;13.49;64.07;98612.00;6140096;23;6767;-74
2023/10/26 05:25:32;;;;;;;;;;;;;;;13.46;64.06;98607.69;6138571;23;6803;-74
2023/10/26 05:27:59;;;;;;;;;;;;;;;13.44;64.06;98605.13;6140908;23;6766;-74
2023/10/26 05:30:25;;;;;;;;;;;;;;;13.42;64.22;98600.75;6140214;23;6787;-73
2023/10/26 05:32:50;;;;;;;;;;;;;;;13.40;63.71;98600.75;6166917;23;6831;-74
2023/10/26 05:35:18;;;;;;;;;;;;;;;13.37;63.76;98603.31;6140660;23;6743;-73
2023/10/26 05:37:44;;;;;;;;;;;;;;;13.38;63.36;98601.59;6108981;23;6985;-72
2023/10/26 05:40:10;;;;;;;;;;;;;;;13.34;63.85;98601.56;6122152;23;6929;-72
2023/10/26 05:42:36;;;;;;;;;;;;;;;13.32;62.84;98605.84;6147036;23;6978;-72
2023/10/26 05:45:02;;;;;;;;;;;;;;;13.30;63.33;98604.09;6149292;23;7352;-72
2023/10/26 05:47:28;;;;;;;;;;;;;;;13.26;63.89;98608.34;6123695;23;6984;-72
2023/10/26 05:49:54;;;;;;;;;;;;;;;13.24;64.05;98604.91;6122806;23;7802;-73
2023/10/26 05:52:20;;;;;;;;;;;;;;;13.23;64.19;98598.03;6143866;23;6786;-72
2023/10/26 05:54:46;;;;;;;;;;;;;;;13.22;63.97;98596.31;6122824;23;6843;-72
2023/10/26 05:57:12;;;;;;;;;;;;;;;13.20;63.23;98595.47;6122817;23;7119;-72
2023/10/26 05:59:38;;;;;;;;;;;;;;;13.16;62.68;98604.84;6123017;23;6767;-72
2023/10/26 06:02:04;;;;;;;;;;;;;;;13.12;62.69;98603.09;6096610;23;7162;-72
2023/10/26 06:04:29;;;;;;;;;;;;;;;13.11;62.50;98605.66;6099063;23;7337;-72
2023/10/26 06:06:55;;;;;;;;;;;;;;;13.08;63.20;98591.06;6122924;23;6766;-72
2023/10/26 06:09:21;;;;;;;;;;;;;;;13.06;63.40;98595.34;6122641;23;7064;-72
2023/10/26 06:11:47;;;;;;;;;;;;;;;13.02;62.52;98598.72;6123251;23;6929;-72
2023/10/26 06:14:12;;;;;;;;;;;;;;;12.98;62.95;98591.81;6146792;23;6965;-72
2023/10/26 06:16:38;;;;;;;;;;;;;;;12.92;63.35;98583.19;6096829;23;6936;-72
2023/10/26 06:19:03;;;;;;;;;;;;;;;12.88;62.27;98586.59;6097594;23;7014;-72
2023/10/26 06:21:29;;;;;;;;;;;;;;;12.83;62.27;98592.53;6122092;23;6767;-72
2023/10/26 06:23:55;;;;;;;;;;;;;;;12.78;62.32;98585.63;6122614;23;6783;-72
2023/10/26 06:26:20;;;;;;;;;;;;;;;12.76;62.67;98597.63;6144640;23;6933;-72
2023/10/26 06:28:46;;;;;;;;;;;;;;;12.76;62.99;98595.03;6122669;23;7048;-72
2023/10/26 06:31:16;;;;;;;;;;;;;;;12.78;63.26;98595.91;6122460;23;6834;-72
2023/10/26 06:33:43;;;;;;;;;;;;;;;12.83;63.66;98593.38;6123724;23;8189;-72
2023/10/26 06:36:12;;;;;;;;;;;;;;;12.92;64.14;98597.78;6122581;23;7261;-72
2023/10/26 06:38:40;;;;;;;;;;;;;;;13.01;64.63;98597.00;6095811;23;7053;-72
2023/10/26 06:41:06;;;;;;;;;;;;;;;13.10;64.80;98606.53;6094995;23;7048;-71
2023/10/26 06:43:33;;;;;;;;;;;;;;;13.17;64.66;98603.13;6121067;23;7161;-72
2023/10/26 06:46:00;;;;;;;;;;;;;;;13.23;64.93;98600.63;6147514;23;6890;-75
2023/10/26 06:48:25;;;;;;;;;;;;;;;13.31;64.71;98605.81;6148304;23;6774;-72
2023/10/26 06:51:00;;;;;;;;;;;;;;;13.37;64.80;98600.72;6150861;23;6970;-73
2023/10/26 06:53:27;;;;;;;;;;;;;;;13.46;65.47;98597.38;6150006;23;6846;-73
2023/10/26 06:55:53;;;;;;;;;;;;;;;13.54;64.66;98593.16;6098727;23;6974;-72
2023/10/26 06:58:18;;;;;;;;;;;;;;;13.63;64.29;98591.50;6149166;23;6778;-71
2023/10/26 07:00:44;;;;;;;;;;;;;;;13.71;64.28;98579.53;6147258;23;6942;-71
2023/10/26 07:03:10;;;;;;;;;;;;;;;13.78;64.21;98577.84;6123441;23;6833;-73
2023/10/26 07:05:35;;;;;;;;;;;;;;;13.87;64.29;98575.34;6096661;23;6969;-72
2023/10/26 07:08:01;;;;;;;;;;;;;;;13.93;63.93;98567.66;6123174;23;7968;-72
2023/10/26 07:10:27;;;;;;;;;;;;;;;13.99;64.08;98572.81;6123343;23;6759;-71
2023/10/26 07:12:52;;;;;;;;;;;;;;;14.04;64.55;98575.41;6123582;23;6755;-73
2023/10/26 07:15:18;;;;;;;;;;;;;;;14.07;64.48;98578.03;6122779;23;7533;-72
2023/10/26 07:17:44;;;;;;;;;;;;;;;14.12;63.89;98580.63;6098289;23;6959;-72
2023/10/26 07:20:12;;;;;;;;;;;;;;;14.18;64.45;98578.06;6098431;23;7304;-74
2023/10/26 07:22:40;;;;;;;;;;;;;;;14.25;64.72;98576.38;6148529;23;6790;-73
2023/10/26 07:25:06;;;;;;;;;;;;;;;14.29;64.84;98584.13;6123098;23;6961;-74
2023/10/26 07:27:32;;;;;;;;;;;;;;;14.33;63.98;98577.25;6123818;23;6778;-72
2023/10/26 07:29:59;;;;;;;;;;;;;;;14.34;63.80;98572.97;6098360;23;7124;-73
2023/10/26 07:32:25;;;;;;;;;;;;;;;14.29;63.35;98573.81;6147726;23;6787;-72
2023/10/26 07:34:52;;;;;;;;;;;;;;;14.25;62.79;98573.81;6149573;23;6921;-72
2023/10/26 07:37:18;;;;;;;;;;;;;;;14.18;63.06;98578.06;6125038;23;6981;-73
2023/10/26 07:39:44;;;;;;;;;;;;;;;14.12;62.82;98570.31;6123225;23;6965;-73
2023/10/26 07:42:10;;;;;;;;;;;;;;;14.08;63.56;98576.28;6097094;23;6948;-73
2023/10/26 07:44:37;;;;;;;;;;;;;;;14.00;63.23;98568.53;6098129;23;6964;-74
2023/10/26 07:47:04;;;;;;;;;;;;;;;13.97;63.11;98565.97;6122404;23;7020;-72
2023/10/26 07:49:30;;;;;;;;;;;;;;;13.94;62.69;98565.91;6149267;23;6775;-72
2023/10/26 07:51:55;;;;;;;;;;;;;;;13.91;63.62;98569.38;6122603;23;6924;-73
2023/10/26 07:54:21;;;;;;;;;;;;;;;13.91;63.28;98566.78;6148996;23;6770;-73
2023/10/26 07:56:47;;;;;;;;;;;;;;;13.92;63.21;98560.78;6148677;23;6921;-74
2023/10/26 07:59:12;;;;;;;;;;;;;;;13.93;63.28;98559.94;6099211;23;6983;-73
2023/10/26 08:01:38;;;;;;;;;;;;;;;13.95;63.76;98567.63;6122425;23;7183;-72
2023/10/26 08:04:04;;;;;;;;;;;;;;;13.99;63.56;98574.53;6122792;23;6900;-73
2023/10/26 08:06:29;;;;;;;;;;;;;;;14.00;63.19;98569.41;6123190;23;7217;-73
2023/10/26 08:08:56;;;;;;;;;;;;;;;14.03;63.63;98576.28;6123477;23;7019;-73
2023/10/26 08:11:23;;;;;;;;;;;;;;;14.09;64.24;98586.63;6124420;23;6779;-74
2023/10/26 08:13:49;;;;;;;;;;;;;;;14.18;63.75;98590.94;6123195;23;6771;-73
2023/10/26 08:16:15;;;;;;;;;;;;;;;14.26;63.95;98599.56;6147896;23;6950;-73
2023/10/26 08:18:42;;;;;;;;;;;;;;;14.35;64.20;98597.88;6099006;23;6987;-72
2023/10/26 08:21:08;;;;;;;;;;;;;;;14.44;64.42;98597.91;6122264;23;6783;-73
2023/10/26 08:23:34;;;;;;;;;;;;;;;14.53;63.90;98592.78;6147780;23;6775;-74
2023/10/26 08:26:10;;;;;;;;;;;;;;;14.65;63.83;98593.66;6096862;23;7024;-73
2023/10/26 08:28:36;;;;;;;;;;;;;;;14.71;64.30;98589.38;6123859;23;6969;-73
2023/10/26 08:31:02;;;;;;;;;;;;;;;14.78;64.13;98579.13;6122324;23;6774;-73
2023/10/26 08:33:30;;;;;;;;;;;;;;;14.83;63.73;98574.84;6149591;23;6862;-73
2023/10/26 08:35:56;;;;;;;;;;;;;;;14.89;63.01;98579.16;6149029;23;6831;-73
2023/10/26 08:38:22;;;;;;;;;;;;;;;14.92;63.54;98584.31;6122376;23;6762;-73
2023/10/26 08:40:53;;;;;;;;;;;;;;;14.95;63.58;98586.88;6122942;23;7032;-73
2023/10/26 08:43:21;;;;;;;;;;;;;;;14.96;63.52;98591.16;6146799;23;6807;-73
2023/10/26 08:45:47;;;;;;;;;;;;;;;14.99;62.91;98594.63;6098305;23;6956;-73
2023/10/26 08:48:18;;;;;;;;;;;;;;;15.03;62.98;98600.66;6123419;23;6993;-72
2023/10/26 08:50:48;;;;;;;;;;;;;;;15.05;63.26;98601.50;6123786;23;6775;-73
2023/10/26 08:53:15;;;;;;;;;;;;;;;15.09;63.05;98610.97;6123220;23;6963;-73
2023/10/26 08:55:42;;;;;;;;;;;;;;;15.13;63.21;98599.78;6100127;23;7498;-72
2023/10/26 08:58:08;;;;;;;;;;;;;;;15.22;63.27;98604.13;6149517;23;6883;-73
2023/10/26 09:00:41;;;;;;;;;;;;;;;15.30;63.62;98604.09;6122921;23;6973;-73
2023/10/26 09:03:07;;;;;;;;;;;;;;;15.36;63.20;98606.69;6125969;23;6775;-73
2023/10/26 09:05:50;;;;;;;;;;;;;;;15.43;63.39;98610.13;6125290;23;8222;-72
2023/10/26 09:08:17;;;;;;;;;;;;;;;15.47;62.76;98603.25;6151143;23;7264;-75
2023/10/26 09:10:43;;;;;;;;;;;;;;;15.52;62.78;98596.34;6162081;23;6947;-75
2023/10/26 09:13:08;;;;;;;;;;;;;;;15.58;62.87;98590.31;6108646;23;6797;-74
2023/10/26 09:15:50;;;;;;;;;;;;;;;15.67;63.11;98591.16;6164374;23;6751;-75
2023/10/26 09:18:16;;;;;;;;;;;;;;;15.75;62.99;98579.97;6137718;23;6778;-74
2023/10/26 09:20:43;;;;;;;;;;;;;;;15.83;62.69;98581.66;6114094;23;7113;-74
2023/10/26 09:23:27;;;;;;;;;;;;;;;15.94;62.58;98580.78;6162579;23;6790;-74
2023/10/26 09:25:58;;;;;;;;;;;;;;;16.07;62.80;98594.53;6137972;23;6843;-74
2023/10/26 09:28:24;;;;;;;;;;;;;;;16.17;62.43;98591.06;6166496;23;6778;-74
2023/10/26 09:30:50;;;;;;;;;;;;;;;16.30;62.42;98583.25;6140295;23;6991;-74
2023/10/26 09:33:26;;;;;;;;;;;;;;;16.40;62.21;98591.84;6140358;23;6815;-74
2023/10/26 09:35:52;;;;;;;;;;;;;;;16.45;62.23;98580.59;6142094;23;6779;-75
2023/10/26 09:38:41;;;;;;;;;;;;;;;16.48;61.84;98579.72;6115148;23;6816;-74
2023/10/26 09:41:12;;;;;;;;;;;;;;;16.48;61.97;98575.41;6140536;23;6779;-74
2023/10/26 09:43:42;;;;;;;;;;;;;;;16.50;61.83;98580.56;6165780;23;6928;-74
2023/10/26 09:46:10;;;;;;;;;;;;;;;16.51;61.15;98575.41;6162087;23;6790;-75
2023/10/26 09:48:36;;;;;;;;;;;;;;;16.57;61.89;98574.50;6138182;23;7111;-74
2023/10/26 09:51:04;;;;;;;;;;;;;;;16.63;61.99;98579.63;6115099;23;7221;-75
2023/10/26 09:53:40;;;;;;;;;;;;;;;16.72;61.55;98583.03;6165724;23;6774;-74
2023/10/26 09:56:10;;;;;;;;;;;;;;;16.80;61.52;98581.25;6166278;23;6929;-75
2023/10/26 09:58:41;;;;;;;;;;;;;;;17.01;62.38;98569.94;6141646;23;7065;-74
2023/10/26 10:01:42;;;;;;;;;;;;;;;17.31;61.65;98574.84;6139641;23;6767;-75
2023/10/26 10:04:13;;;;;;;;;;;;;;;17.51;61.31;98561.75;6165270;23;7168;-75
2023/10/26 10:06:51;;;;;;;;;;;;;;;17.73;61.79;98552.03;6141033;23;6837;-75
2023/10/26 10:09:23;;;;;;;;;;;;;;;18.08;60.94;98549.94;6141678;23;6966;-74
2023/10/26 10:12:04;;;;;;;;;;;;;;;18.46;60.69;98548.56;6140045;23;6779;-75
2023/10/26 10:14:48;;;;;;;;;;;;;;;18.68;59.30;98545.66;6164007;23;7127;-75
2023/10/26 10:17:15;;;;;;;;;;;;;;;18.78;59.31;98548.13;6167437;23;6897;-74
2023/10/26 10:19:43;;;;;;;;;;;;;;;18.82;58.57;98539.38;6156231;23;7029;-73
2023/10/26 10:22:33;;;;;;;;;;;;;;;18.81;58.77;98541.13;6099547;23;7288;-73
2023/10/26 10:24:59;;;;;;;;;;;;;;;18.78;58.50;98545.53;6149396;23;6973;-73
2023/10/26 10:27:25;;;;;;;;;;;;;;;18.76;57.54;98547.28;6123886;23;6774;-74
2023/10/26 10:30:05;;;;;;;;;;;;;;;18.69;57.79;98544.78;6123273;23;7022;-73
2023/10/26 10:32:42;;;;;;;;;;;;;;;18.60;57.83;98542.31;6123316;23;7254;-73
2023/10/26 10:35:10;;;;;;;;;;;;;;;18.50;57.09;98533.81;6149389;23;6942;-73
2023/10/26 10:37:37;;;;;;;;;;;;;;;18.42;57.44;98539.09;6120244;23;6956;-74
2023/10/26 10:40:16;;;;;;;;;;;;;;;18.35;57.32;98540.09;6144807;23;6843;-73
2023/10/26 10:42:50;;;;;;;;;;;;;;;18.26;57.56;98530.69;6098564;23;8015;-73
2023/10/26 10:45:17;;;;;;;;;;;;;;;18.20;57.80;98529.91;6146528;23;6779;-73
2023/10/26 10:47:47;;;;;;;;;;;;;;;18.13;56.96;98511.81;6123103;23;6771;-73
2023/10/26 10:50:14;;;;;;;;;;;;;;;18.08;57.43;98513.63;6123594;23;7057;-73
2023/10/26 10:52:41;;;;;;;;;;;;;;;18.00;57.11;98512.84;6098871;23;6967;-73
2023/10/26 10:55:07;;;;;;;;;;;;;;;17.89;57.28;98512.97;6147358;23;6774;-73
2023/10/26 10:57:32;;;;;;;;;;;;;;;17.76;56.83;98513.13;6123511;23;7169;-72
2023/10/26 10:59:58;;;;;;;;;;;;;;;17.69;56.96;98515.81;6097442;23;7040;-73
2023/10/26 11:02:23;;;;;;;;;;;;;;;17.62;57.38;98515.84;6122572;23;6763;-73
2023/10/26 11:04:53;;;;;;;;;;;;;;;17.64;57.63;98508.09;6099481;23;7117;-73
2023/10/26 11:07:30;;;;;;;;;;;;;;;17.69;57.61;98501.09;6123650;23;7069;-73
2023/10/26 11:10:00;;;;;;;;;;;;;;;17.71;57.45;98495.91;6149712;23;7001;-73
2023/10/26 11:12:26;;;;;;;;;;;;;;;17.71;57.48;98481.22;6122781;23;7185;-73
2023/10/26 11:14:53;;;;;;;;;;;;;;;17.75;57.18;98489.81;6123415;23;6827;-73
2023/10/26 11:17:24;;;;;;;;;;;;;;;17.80;57.19;98493.22;6145319;23;7072;-73
2023/10/26 11:19:52;;;;;;;;;;;;;;;18.05;58.05;98482.56;6123866;23;7025;-72
2023/10/26 11:22:19;;;;;;;;;;;;;;;18.66;58.22;98485.16;6122618;23;6955;-73
2023/10/26 11:24:45;;;;;;;;;;;;;;;19.13;55.96;98481.81;6122822;23;7008;-73
2023/10/26 11:27:20;;;;;;;;;;;;;;;19.33;55.51;98489.25;6094391;23;6846;-73
2023/10/26 11:30:08;;;;;;;;;;;;;;;19.34;54.92;98485.75;6146995;23;6842;-77
2023/10/26 11:32:34;;;;;;;;;;;;;;;19.31;54.89;98485.81;6122726;23;6934;-75
2023/10/26 11:35:13;;;;;;;;;;;;;;;19.27;54.96;98479.81;6147833;23;7239;-77
2023/10/26 11:37:48;;;;;;;;;;;;;;;19.25;54.81;98473.81;6125016;23;7655;-77
2023/10/26 11:40:16;;;;;;;;;;;;;;;19.22;54.95;98473.88;6123370;23;6954;-77
2023/10/26 11:42:55;;;;;;;;;;;;;;;19.22;55.01;98463.50;6097631;23;7158;-77
2023/10/26 11:45:25;;;;;;;;;;;;;;;19.17;54.22;98462.69;6122063;23;7227;-75
2023/10/26 11:47:58;;;;;;;;;;;;;;;19.12;54.20;98461.91;6098501;23;6950;-77
2023/10/26 11:50:27;;;;;;;;;;;;;;;19.08;53.91;98460.25;6148002;23;6839;-77
2023/10/26 11:53:04;;;;;;;;;;;;;;;19.06;54.45;98464.63;6149473;23;6838;-77
2023/10/26 11:55:33;;;;;;;;;;;;;;;19.04;54.72;98463.81;6123619;23;6993;-76
2023/10/26 11:58:00;;;;;;;;;;;;;;;19.06;54.21;98465.47;6099039;23;6956;-76
2023/10/26 12:00:28;;;;;;;;;;;;;;;19.08;54.23;98473.25;6121572;23;6956;-75
2023/10/26 12:02:55;;;;;;;;;;;;;;;19.07;54.10;98474.97;6147423;23;7413;-76
2023/10/26 12:05:21;;;;;;;;;;;;;;;19.07;54.03;98474.13;6147839;23;6858;-77
2023/10/26 12:07:48;;;;;;;;;;;;;;;19.08;54.30;98475.84;6122591;23;6782;-77
2023/10/26 12:10:16;;;;;;;;;;;;;;;19.11;54.34;98473.19;6122842;23;6770;-77
2023/10/26 12:12:48;;;;;;;;;;;;;;;19.13;53.86;98472.28;6123097;23;6775;-76
2023/10/26 12:15:14;;;;;;;;;;;;;;;19.11;53.59;98474.06;6097518;23;7037;-77
2023/10/26 12:17:40;;;;;;;;;;;;;;;19.11;53.75;98480.97;6121849;23;6767;-77
2023/10/26 12:20:08;;;;;;;;;;;;;;;19.11;53.27;98478.38;6121146;23;7108;-77
2023/10/26 12:22:34;;;;;;;;;;;;;;;19.07;52.78;98474.13;6146387;23;6783;-77
2023/10/26 12:25:04;;;;;;;;;;;;;;;18.98;53.55;98470.78;6145765;23;6992;-77
2023/10/26 12:27:30;;;;;;;;;;;;;;;18.90;53.03;98467.47;6145877;23;6853;-77
2023/10/26 12:29:56;;;;;;;;;;;;;;;18.79;52.61;98471.97;6117244;23;7053;-76
2023/10/26 12:32:23;;;;;;;;;;;;;;;18.69;52.63;98469.53;6120452;23;6826;-74
2023/10/26 12:34:50;;;;;;;;;;;;;;;18.60;52.83;98464.47;6097243;23;6993;-77
2023/10/26 12:37:15;;;;;;;;;;;;;;;18.53;53.12;98465.47;6121663;23;6850;-78
2023/10/26 12:39:41;;;;;;;;;;;;;;;18.53;53.79;98465.47;6148078;23;6771;-76
2023/10/26 12:42:07;;;;;;;;;;;;;;;18.54;53.75;98460.25;6146696;23;6766;-75
2023/10/26 12:44:32;;;;;;;;;;;;;;;18.59;53.45;98452.41;6121842;23;6906;-77
2023/10/26 12:46:58;;;;;;;;;;;;;;;18.62;53.66;98454.94;6146236;23;7206;-78
2023/10/26 12:49:24;;;;;;;;;;;;;;;18.66;53.72;98456.63;6146026;23;6915;-77
2023/10/26 12:51:50;;;;;;;;;;;;;;;18.68;53.70;98452.25;6121663;23;6881;-77
2023/10/26 12:54:16;;;;;;;;;;;;;;;18.69;53.57;98451.38;6121213;23;7089;-78
2023/10/26 12:56:42;;;;;;;;;;;;;;;18.70;53.43;98450.47;6121973;23;6774;-74
2023/10/26 12:59:08;;;;;;;;;;;;;;;18.72;53.19;98450.47;6121116;23;7619;-76